Time;durP1;ratioP1;P1;durP2;ratioP2;P2;SDS_P1;SDS_P2;PMS_P1;PMS_P2;Temp;Humidity;BMP_temperature;BMP_pressure;BME280_temperature;BME280_humidity;BME280_pressure;Samples;Min_cycle;Max_cycle;Signal;HPM_P1;HPM_P2
2022/08/03 00:01:16;;;;;;;2.50;1.40;;;24.70;99.90;;;;;;4230604;28;20267;-84
2022/08/03 00:03:19;;;;;;;1.42;1.10;;;24.70;99.90;;;;;;4230161;28;20213;-84
2022/08/03 00:05:21;;;;;;;2.53;1.30;;;24.70;99.90;;;;;;4230404;28;20210;-84
2022/08/03 00:07:23;;;;;;;1.65;1.33;;;24.70;99.90;;;;;;4230068;28;20643;-84
2022/08/03 00:09:25;;;;;;;2.38;1.20;;;24.70;99.90;;;;;;4230703;28;20269;-84
2022/08/03 00:11:29;;;;;;;1.67;1.27;;;24.70;99.90;;;;;;4230616;28;20615;-84
2022/08/03 00:13:31;;;;;;;1.55;1.35;;;24.70;99.90;;;;;;4230128;28;20217;-84
2022/08/03 00:15:34;;;;;;;1.98;1.30;;;24.70;99.90;;;;;;4230541;28;20653;-84
2022/08/03 00:17:36;;;;;;;1.85;1.40;;;24.70;99.90;;;;;;4230106;28;20255;-84
2022/08/03 00:19:38;;;;;;;2.13;1.20;;;24.70;99.90;;;;;;4230320;28;20658;-84
2022/08/03 00:21:41;;;;;;;1.30;1.20;;;24.70;99.90;;;;;;4230320;28;20741;-84
2022/08/03 00:23:43;;;;;;;1.35;1.10;;;24.70;99.90;;;;;;4230388;28;20638;-84
2022/08/03 00:25:46;;;;;;;1.63;1.10;;;24.70;99.90;;;;;;4230076;28;20279;-84
2022/08/03 00:27:49;;;;;;;1.60;1.30;;;24.70;99.90;;;;;;4230230;28;20217;-84
2022/08/03 00:29:51;;;;;;;1.83;1.30;;;24.70;99.90;;;;;;4230042;28;20622;-84
2022/08/03 00:31:54;;;;;;;1.75;1.10;;;24.70;99.90;;;;;;4229707;28;20225;-84
2022/08/03 00:33:56;;;;;;;2.47;1.35;;;24.70;99.90;;;;;;4230390;28;20749;-84
2022/08/03 00:35:58;;;;;;;1.60;1.27;;;24.70;99.90;;;;;;4230086;28;20614;-84
2022/08/03 00:38:01;;;;;;;3.17;1.35;;;24.70;99.90;;;;;;4230268;28;20221;-84
2022/08/03 00:40:03;;;;;;;1.58;1.00;;;24.70;99.90;;;;;;4229914;28;20205;-84
2022/08/03 00:42:05;;;;;;;2.55;1.00;;;24.70;99.90;;;;;;4229959;28;20670;-84
2022/08/03 00:44:09;;;;;;;1.38;1.20;;;24.70;99.90;;;;;;4229342;28;20237;-84
2022/08/03 00:46:11;;;;;;;2.10;1.30;;;24.70;99.90;;;;;;4230382;28;20237;-84
2022/08/03 00:48:14;;;;;;;1.33;1.13;;;24.60;99.90;;;;;;4229665;28;20266;-84
2022/08/03 00:50:18;;;;;;;3.10;1.20;;;24.60;99.90;;;;;;4229856;28;20265;-84
2022/08/03 00:52:20;;;;;;;1.88;1.38;;;24.70;99.90;;;;;;4229719;28;20247;-84
2022/08/03 00:54:23;;;;;;;2.35;1.20;;;24.70;99.90;;;;;;4229491;28;20223;-84
2022/08/03 00:56:26;;;;;;;3.25;1.20;;;24.60;99.90;;;;;;4229831;28;20213;-84
2022/08/03 00:58:29;;;;;;;1.88;1.10;;;24.70;99.90;;;;;;4229782;28;20662;-84
2022/08/03 01:00:37;;;;;;;1.48;1.25;;;24.70;99.90;;;;;;4230093;28;20213;-84
2022/08/03 01:02:40;;;;;;;1.73;1.20;;;24.60;99.90;;;;;;4229651;28;20217;-84
2022/08/03 01:04:42;;;;;;;2.83;1.52;;;24.60;99.90;;;;;;4230010;28;20262;-84
2022/08/03 01:06:50;;;;;;;2.33;1.00;;;24.60;99.90;;;;;;4229094;28;20229;-84
2022/08/03 01:09:00;;;;;;;2.13;1.05;;;24.60;99.90;;;;;;4229973;28;20611;-84
2022/08/03 01:11:10;;;;;;;2.83;1.20;;;24.60;99.90;;;;;;4229703;28;20225;-84
2022/08/03 01:13:22;;;;;;;4.88;1.40;;;24.60;99.90;;;;;;4229861;28;20242;-84
2022/08/03 01:15:31;;;;;;;1.60;1.17;;;24.60;99.90;;;;;;4229426;28;20321;-84
2022/08/03 01:17:43;;;;;;;2.75;1.20;;;24.70;99.90;;;;;;4229814;28;20217;-84
2022/08/03 01:19:53;;;;;;;2.05;1.05;;;24.60;99.90;;;;;;4229874;28;20263;-84
2022/08/03 01:22:17;;;;;;;1.58;1.20;;;24.60;99.90;;;;;;4229442;28;20209;-84
2022/08/03 01:24:34;;;;;;;1.63;1.27;;;24.60;99.90;;;;;;4229713;28;20283;-84
2022/08/03 01:26:53;;;;;;;2.00;1.20;;;24.60;99.90;;;;;;4229690;28;20279;-84
2022/08/03 01:29:04;;;;;;;1.73;1.30;;;24.60;99.90;;;;;;4229399;28;20554;-84
2022/08/03 01:31:11;;;;;;;4.10;1.30;;;24.60;99.90;;;;;;4229752;28;20270;-84
2022/08/03 01:33:17;;;;;;;1.88;1.27;;;24.60;99.90;;;;;;4229180;28;20749;-84
2022/08/03 01:35:26;;;;;;;1.52;0.95;;;24.50;99.90;;;;;;4229687;28;20217;-84
2022/08/03 01:37:35;;;;;;;2.25;1.20;;;24.60;99.90;;;;;;4229519;28;20254;-84
2022/08/03 01:39:39;;;;;;;1.70;1.17;;;24.50;99.90;;;;;;4229560;28;20218;-84
2022/08/03 01:41:48;;;;;;;1.60;1.20;;;24.50;99.90;;;;;;4229536;28;20239;-84
2022/08/03 01:43:53;;;;;;;2.08;1.30;;;24.50;99.90;;;;;;4231166;28;20286;-84
2022/08/03 01:45:56;;;;;;;2.30;1.25;;;24.60;99.90;;;;;;4232719;28;20237;-84
2022/08/03 01:48:01;;;;;;;1.58;1.10;;;24.50;99.90;;;;;;4232553;28;20237;-84
2022/08/03 01:50:05;;;;;;;2.53;1.20;;;24.50;99.90;;;;;;4232467;28;20218;-84
2022/08/03 01:52:08;;;;;;;2.78;1.50;;;24.50;99.90;;;;;;4232277;28;20218;-84
2022/08/03 01:54:13;;;;;;;4.53;1.55;;;24.50;99.90;;;;;;4232578;28;20274;-84
2022/08/03 01:56:17;;;;;;;2.65;1.20;;;24.50;99.90;;;;;;4232106;28;20258;-84
2022/08/03 01:58:22;;;;;;;1.90;1.10;;;24.50;99.90;;;;;;4232339;28;20214;-84
2022/08/03 02:00:25;;;;;;;3.17;1.35;;;24.50;99.90;;;;;;4232439;28;20229;-84
2022/08/03 02:02:29;;;;;;;2.88;1.33;;;24.50;99.90;;;;;;4232645;28;20210;-84
2022/08/03 02:04:34;;;;;;;1.83;1.27;;;24.50;99.90;;;;;;4232484;28;20210;-84
2022/08/03 02:06:38;;;;;;;1.70;1.40;;;24.50;99.90;;;;;;4232205;28;20279;-84
2022/08/03 02:08:43;;;;;;;2.20;1.10;;;24.50;99.90;;;;;;4232653;28;20669;-84
2022/08/03 02:10:46;;;;;;;1.70;1.30;;;24.50;99.90;;;;;;4232100;28;20274;-84
2022/08/03 02:12:50;;;;;;;2.88;1.48;;;24.50;99.90;;;;;;4232415;28;20552;-84
2022/08/03 02:14:53;;;;;;;3.20;1.33;;;24.50;99.90;;;;;;4232128;28;20217;-84
2022/08/03 02:16:57;;;;;;;2.03;1.33;;;24.50;99.90;;;;;;4231940;28;20719;-84
2022/08/03 02:19:01;;;;;;;2.45;1.33;;;24.50;99.90;;;;;;4231953;28;20214;-84
2022/08/03 02:21:07;;;;;;;1.88;1.25;;;24.50;99.90;;;;;;4232016;28;20270;-84
2022/08/03 02:23:09;;;;;;;1.60;1.30;;;24.50;99.90;;;;;;4232124;28;20217;-84
2022/08/03 02:25:13;;;;;;;4.07;1.60;;;24.50;99.90;;;;;;4231918;28;20738;-84
2022/08/03 02:27:21;;;;;;;3.33;1.45;;;24.50;99.90;;;;;;4232089;28;20283;-84
2022/08/03 02:29:26;;;;;;;2.13;1.27;;;24.50;99.90;;;;;;4232113;28;20224;-84
2022/08/03 02:31:32;;;;;;;1.75;1.17;;;24.50;99.90;;;;;;4215446;28;20236;-84
2022/08/03 02:33:38;;;;;;;3.13;1.38;;;24.50;99.90;;;;;;4214982;28;20218;-84
2022/08/03 02:35:43;;;;;;;2.10;1.42;;;24.50;99.90;;;;;;4215311;28;20740;-84
2022/08/03 02:37:51;;;;;;;2.88;1.40;;;24.50;99.90;;;;;;4214732;28;20275;-84
2022/08/03 02:39:57;;;;;;;2.70;1.20;;;24.40;99.90;;;;;;4214763;28;20615;-84
2022/08/03 02:42:02;;;;;;;2.63;1.35;;;24.40;99.90;;;;;;4215145;28;20258;-84
2022/08/03 02:44:08;;;;;;;1.38;1.25;;;24.50;99.90;;;;;;4214569;28;20230;-83
2022/08/03 02:46:11;;;;;;;1.77;1.20;;;24.50;99.90;;;;;;4214727;28;20214;-84
2022/08/03 02:48:18;;;;;;;2.83;1.20;;;24.50;99.90;;;;;;4214486;28;20230;-84
2022/08/03 02:50:23;;;;;;;2.03;1.13;;;24.40;99.90;;;;;;4214233;28;20288;-84
2022/08/03 02:52:28;;;;;;;3.67;1.40;;;24.40;99.90;;;;;;4214751;28;20248;-84
2022/08/03 02:54:34;;;;;;;2.97;1.27;;;24.40;99.90;;;;;;4214179;28;20210;-84
2022/08/03 02:56:38;;;;;;;3.63;1.42;;;24.40;99.90;;;;;;4214604;28;20214;-84
2022/08/03 02:58:42;;;;;;;2.75;1.20;;;24.40;99.90;;;;;;4214360;28;20611;-84
2022/08/03 03:00:45;;;;;;;2.85;1.30;;;24.50;99.90;;;;;;4214487;28;20210;-84
2022/08/03 03:02:47;;;;;;;1.55;1.08;;;24.40;99.90;;;;;;4214782;28;20264;-84
2022/08/03 03:04:52;;;;;;;1.63;1.38;;;24.40;99.90;;;;;;4214445;28;20218;-84
2022/08/03 03:06:55;;;;;;;2.78;1.30;;;24.40;99.90;;;;;;4214911;28;20210;-83
2022/08/03 03:08:59;;;;;;;3.13;1.27;;;24.40;99.90;;;;;;4214555;28;20215;-84
2022/08/03 03:11:04;;;;;;;2.40;1.15;;;24.40;99.90;;;;;;4214564;28;20267;-84
2022/08/03 03:13:07;;;;;;;3.15;1.30;;;24.40;99.90;;;;;;4214353;28;20215;-84
2022/08/03 03:15:11;;;;;;;4.45;1.50;;;24.40;99.90;;;;;;4214470;28;20215;-84
2022/08/03 03:17:16;;;;;;;2.35;1.33;;;24.40;99.90;;;;;;4214315;28;20272;-84
2022/08/03 03:19:20;;;;;;;2.10;1.20;;;24.40;99.90;;;;;;4214069;28;20226;-84
2022/08/03 03:21:23;;;;;;;2.30;1.38;;;24.40;99.90;;;;;;4214198;28;20724;-84
2022/08/03 03:23:27;;;;;;;3.05;1.80;;;24.40;99.90;;;;;;4214027;28;20214;-84
2022/08/03 03:25:32;;;;;;;2.85;1.48;;;24.40;99.90;;;;;;4214254;28;20268;-84
2022/08/03 03:27:35;;;;;;;1.98;1.20;;;24.40;99.90;;;;;;4214368;28;20238;-84
2022/08/03 03:29:38;;;;;;;4.55;1.40;;;24.40;99.90;;;;;;4216351;28;20323;-83
2022/08/03 03:31:40;;;;;;;2.85;1.30;;;24.40;99.90;;;;;;4231129;28;20217;-84
2022/08/03 03:33:43;;;;;;;2.58;1.50;;;24.40;99.90;;;;;;4231119;28;20661;-84
2022/08/03 03:35:46;;;;;;;2.63;1.40;;;24.40;99.90;;;;;;4230870;28;20221;-84
2022/08/03 03:37:48;;;;;;;2.92;1.38;;;24.40;99.90;;;;;;4231016;28;20247;-84
2022/08/03 03:39:50;;;;;;;2.75;1.48;;;24.40;99.90;;;;;;4230757;28;20255;-83
2022/08/03 03:41:53;;;;;;;2.45;1.60;;;24.40;99.90;;;;;;4231088;28;20222;-83
2022/08/03 03:43:57;;;;;;;1.88;1.30;;;24.40;99.90;;;;;;4230760;28;20233;-83
2022/08/03 03:46:00;;;;;;;1.83;1.30;;;24.40;99.90;;;;;;4230571;28;20217;-84
2022/08/03 03:48:04;;;;;;;3.58;1.75;;;24.40;99.90;;;;;;4230541;28;20237;-81
2022/08/03 03:50:09;;;;;;;3.22;1.35;;;24.40;99.90;;;;;;4230793;28;20222;-80
2022/08/03 03:52:11;;;;;;;3.10;1.33;;;24.40;99.90;;;;;;4230427;28;20213;-80
2022/08/03 03:54:14;;;;;;;2.33;1.50;;;24.40;99.90;;;;;;4230686;28;20262;-80
2022/08/03 03:56:17;;;;;;;2.03;1.30;;;24.40;99.90;;;;;;4230617;28;20271;-80
2022/08/03 03:58:20;;;;;;;2.65;1.30;;;24.40;99.90;;;;;;4230804;28;20737;-80
2022/08/03 04:00:24;;;;;;;2.97;1.30;;;24.40;99.90;;;;;;4230786;28;20213;-80
2022/08/03 04:02:27;;;;;;;1.23;1.13;;;24.40;99.90;;;;;;4230195;28;20221;-80
2022/08/03 04:11:36;;;;;;;2.30;1.40;;;24.30;99.90;;;;;;4230756;28;20634;-84
2022/08/03 04:13:42;;;;;;;2.30;1.42;;;24.30;99.90;;;;;;4230253;28;20273;-84
2022/08/03 04:15:47;;;;;;;3.25;1.40;;;24.30;99.90;;;;;;4229981;28;20209;-84
2022/08/03 04:17:52;;;;;;;3.88;1.50;;;24.30;99.90;;;;;;4230108;28;20210;-84
2022/08/03 04:19:57;;;;;;;4.32;1.23;;;24.30;99.90;;;;;;4230195;28;20255;-84
2022/08/03 04:22:02;;;;;;;2.67;1.50;;;24.30;99.90;;;;;;4229954;28;20731;-84
2022/08/03 04:24:08;;;;;;;2.55;1.30;;;24.30;99.90;;;;;;4230115;28;20267;-83
2022/08/03 04:26:15;;;;;;;2.28;1.40;;;24.30;99.90;;;;;;4229756;28;20628;-83
2022/08/03 04:28:19;;;;;;;3.15;1.40;;;24.30;99.90;;;;;;4230047;28;20237;-84
2022/08/03 04:30:22;;;;;;;3.97;1.40;;;24.30;99.90;;;;;;4229784;28;20217;-84
2022/08/03 04:32:28;;;;;;;2.40;1.80;;;24.30;99.90;;;;;;4229855;28;20271;-84
2022/08/03 04:34:31;;;;;;;3.60;1.25;;;24.30;99.90;;;;;;4229938;28;20255;-84
2022/08/03 04:36:39;;;;;;;1.67;1.10;;;24.30;99.90;;;;;;4230031;28;20561;-84
2022/08/03 04:38:59;;;;;;;2.60;1.20;;;24.30;99.90;;;;;;4229850;28;20270;-84
2022/08/03 04:41:01;;;;;;;3.42;1.35;;;24.30;99.90;;;;;;4230093;28;20210;-84
2022/08/03 04:43:05;;;;;;;3.17;1.23;;;24.30;99.90;;;;;;4229713;28;20209;-83
2022/08/03 04:45:11;;;;;;;3.25;1.30;;;24.30;99.90;;;;;;4230017;28;20221;-84
2022/08/03 04:47:14;;;;;;;3.92;1.77;;;24.30;99.90;;;;;;4229812;28;20262;-83
2022/08/03 04:49:19;;;;;;;4.30;1.38;;;24.30;99.90;;;;;;4229780;28;20693;-84
2022/08/03 04:51:21;;;;;;;3.42;1.15;;;24.30;99.90;;;;;;4229645;28;20623;-84
2022/08/03 04:53:23;;;;;;;2.95;1.48;;;24.20;99.90;;;;;;4229531;28;20662;-83
2022/08/03 04:55:27;;;;;;;2.85;1.42;;;24.30;99.90;;;;;;4229876;28;20582;-84
2022/08/03 04:57:29;;;;;;;2.15;1.27;;;24.30;99.90;;;;;;4229889;28;20279;-83
2022/08/03 04:59:31;;;;;;;4.03;1.50;;;24.30;99.90;;;;;;4230072;28;20218;-84
2022/08/03 05:01:34;;;;;;;2.95;1.58;;;24.30;99.90;;;;;;4229265;28;20666;-83
2022/08/03 05:03:36;;;;;;;2.10;1.20;;;24.30;99.90;;;;;;4229757;28;20622;-84
2022/08/03 05:05:40;;;;;;;2.80;1.42;;;24.30;99.90;;;;;;4229726;28;20259;-84
2022/08/03 05:07:43;;;;;;;3.08;1.50;;;24.30;99.90;;;;;;4229613;28;20274;-84
2022/08/03 05:09:45;;;;;;;4.85;1.45;;;24.30;99.90;;;;;;4229845;28;20697;-84
2022/08/03 05:11:47;;;;;;;2.03;1.42;;;24.30;99.90;;;;;;4229805;28;20221;-84
2022/08/03 05:13:50;;;;;;;2.95;1.40;;;24.30;99.90;;;;;;4229913;28;20218;-83
2022/08/03 05:15:52;;;;;;;3.40;1.23;;;24.30;99.90;;;;;;4229713;28;20217;-84
2022/08/03 05:17:54;;;;;;;2.10;1.30;;;24.30;99.90;;;;;;4231977;28;20258;-84
2022/08/03 05:19:57;;;;;;;3.35;1.35;;;24.30;99.90;;;;;;4232897;28;20266;-84
2022/08/03 05:22:02;;;;;;;2.33;1.33;;;24.30;99.90;;;;;;4233347;28;20282;-84
2022/08/03 05:24:04;;;;;;;4.75;1.90;;;24.30;99.90;;;;;;4233313;28;20209;-84
2022/08/03 05:26:07;;;;;;;2.63;1.30;;;24.20;99.90;;;;;;4233071;28;20214;-84
2022/08/03 05:28:09;;;;;;;2.30;1.50;;;24.30;99.90;;;;;;4232592;28;20209;-84
2022/08/03 05:30:12;;;;;;;4.00;1.30;;;24.30;99.90;;;;;;4232699;28;20239;-84
2022/08/03 05:32:14;;;;;;;2.67;1.70;;;24.20;99.90;;;;;;4232486;28;20618;-84
2022/08/03 05:34:16;;;;;;;2.35;1.48;;;24.30;99.90;;;;;;4232741;28;20218;-84
2022/08/03 05:36:19;;;;;;;4.00;1.50;;;24.30;99.90;;;;;;4233255;28;20258;-84
2022/08/03 05:38:22;;;;;;;2.22;1.42;;;24.20;99.90;;;;;;4232666;28;20266;-84
2022/08/03 05:40:25;;;;;;;3.20;1.17;;;24.20;99.90;;;;;;4232989;28;20266;-83
2022/08/03 05:42:27;;;;;;;2.55;1.30;;;24.20;99.90;;;;;;4232464;28;20270;-84
2022/08/03 05:44:30;;;;;;;3.78;1.40;;;24.30;99.90;;;;;;4232296;28;20337;-84
2022/08/03 05:46:32;;;;;;;4.72;1.30;;;24.20;99.90;;;;;;4232630;28;20255;-84
2022/08/03 05:48:35;;;;;;;4.20;1.50;;;24.30;99.90;;;;;;4232569;28;20237;-84
2022/08/03 05:50:37;;;;;;;2.92;1.52;;;24.30;99.90;;;;;;4232916;28;20263;-84
2022/08/03 05:52:40;;;;;;;3.30;1.50;;;24.30;99.90;;;;;;4232752;28;20209;-84
2022/08/03 05:54:43;;;;;;;3.30;1.23;;;24.30;99.90;;;;;;4232626;28;20263;-84
2022/08/03 05:56:46;;;;;;;4.50;1.50;;;24.30;99.90;;;;;;4232311;28;20264;-84
2022/08/03 05:58:48;;;;;;;3.20;1.20;;;24.30;99.90;;;;;;4232694;28;20214;-84
2022/08/03 06:00:50;;;;;;;2.10;1.30;;;24.30;99.90;;;;;;4232594;28;20718;-84
2022/08/03 06:02:53;;;;;;;3.80;1.40;;;24.30;99.90;;;;;;4232589;28;20217;-84
2022/08/03 06:04:55;;;;;;;4.20;1.55;;;24.30;99.90;;;;;;4232210;28;20214;-84
2022/08/03 06:06:57;;;;;;;3.45;1.27;;;24.30;99.90;;;;;;4232377;28;20266;-84
2022/08/03 06:09:00;;;;;;;4.65;1.55;;;24.30;99.90;;;;;;4232103;28;20283;-84
2022/08/03 06:11:03;;;;;;;2.67;1.35;;;24.30;99.90;;;;;;4232164;28;20279;-84
2022/08/03 06:13:06;;;;;;;2.40;1.30;;;24.30;99.90;;;;;;4232119;28;20742;-84
2022/08/03 06:15:09;;;;;;;3.42;1.45;;;24.30;99.90;;;;;;4232359;28;20218;-83
2022/08/03 06:17:12;;;;;;;2.95;1.50;;;24.30;99.90;;;;;;4232238;28;20666;-83
2022/08/03 06:19:14;;;;;;;2.05;1.42;;;24.20;99.90;;;;;;4231817;28;20210;-83
2022/08/03 06:21:16;;;;;;;3.83;1.13;;;24.30;99.90;;;;;;4231871;28;20218;-83
2022/08/03 06:23:19;;;;;;;3.70;1.58;;;24.30;99.90;;;;;;4231616;28;20218;-83
2022/08/03 06:25:21;;;;;;;4.35;1.50;;;24.30;99.90;;;;;;4232118;28;20221;-84
2022/08/03 06:27:25;;;;;;;4.30;1.50;;;24.30;99.90;;;;;;4231948;28;20218;-84
2022/08/03 06:29:28;;;;;;;3.75;1.25;;;24.30;99.90;;;;;;4230826;28;20237;-84
2022/08/03 06:31:30;;;;;;;2.83;1.45;;;24.20;99.90;;;;;;4231893;28;20209;-83
2022/08/03 06:33:32;;;;;;;2.92;1.45;;;24.30;99.90;;;;;;4231692;28;20209;-83
2022/08/03 06:35:34;;;;;;;2.85;1.60;;;24.30;99.90;;;;;;4231776;28;20213;-83
2022/08/03 06:37:44;;;;;;;5.47;1.80;;;24.30;99.90;;;;;;4231608;28;20270;-84
2022/08/03 06:39:46;;;;;;;3.90;1.40;;;24.30;99.90;;;;;;4231760;28;20209;-84
2022/08/03 06:41:49;;;;;;;3.45;1.70;;;24.20;99.90;;;;;;4231627;28;20218;-83
2022/08/03 06:43:52;;;;;;;3.97;1.77;;;24.30;99.90;;;;;;4231736;28;20633;-83
2022/08/03 06:45:55;;;;;;;3.35;1.60;;;24.30;99.90;;;;;;4231627;28;20286;-83
2022/08/03 06:48:01;;;;;;;3.25;1.40;;;24.30;99.90;;;;;;4231562;28;20213;-83
2022/08/03 06:50:04;;;;;;;4.88;1.35;;;24.30;99.90;;;;;;4231303;28;20282;-83
2022/08/03 06:52:06;;;;;;;4.18;1.77;;;24.30;99.90;;;;;;4231459;28;20243;-83
2022/08/03 06:54:09;;;;;;;3.47;1.63;;;24.20;99.90;;;;;;4231293;28;20217;-83
2022/08/03 06:56:11;;;;;;;2.67;1.42;;;24.20;99.90;;;;;;4231513;28;20209;-83
2022/08/03 06:58:13;;;;;;;3.60;1.50;;;24.30;99.90;;;;;;4231567;28;20221;-83
2022/08/03 07:00:17;;;;;;;3.42;1.58;;;24.30;99.90;;;;;;4231441;28;20642;-83
2022/08/03 07:02:20;;;;;;;3.92;1.38;;;24.30;99.90;;;;;;4231358;28;20217;-84
2022/08/03 07:04:22;;;;;;;3.15;1.45;;;24.20;99.90;;;;;;4231234;28;20259;-83
2022/08/03 07:06:24;;;;;;;3.72;1.50;;;24.30;99.90;;;;;;4231589;28;20334;-83
2022/08/03 07:08:27;;;;;;;3.83;1.42;;;24.30;99.90;;;;;;4232607;28;20213;-84
2022/08/03 07:10:29;;;;;;;2.85;1.40;;;24.30;99.90;;;;;;4232811;28;20266;-83
2022/08/03 07:12:32;;;;;;;2.33;1.40;;;24.30;99.90;;;;;;4232742;28;20214;-83
2022/08/03 07:14:34;;;;;;;4.80;1.48;;;24.30;99.90;;;;;;4232395;28;20217;-83
2022/08/03 07:16:38;;;;;;;3.35;1.10;;;24.30;99.90;;;;;;4232616;28;20267;-83
2022/08/03 07:18:40;;;;;;;2.88;1.25;;;24.30;99.90;;;;;;4232134;28;20209;-83
2022/08/03 07:20:43;;;;;;;3.28;1.50;;;24.30;99.90;;;;;;4232662;28;20715;-83
2022/08/03 07:22:45;;;;;;;4.18;1.75;;;24.30;99.90;;;;;;4232699;28;20269;-83
2022/08/03 07:24:48;;;;;;;3.22;1.50;;;24.30;99.90;;;;;;4232813;28;20667;-83
2022/08/03 07:26:50;;;;;;;3.03;1.42;;;24.30;99.90;;;;;;4232965;28;20222;-83
2022/08/03 07:28:52;;;;;;;2.33;1.25;;;24.30;99.90;;;;;;4232371;28;20255;-84
2022/08/03 07:30:54;;;;;;;2.40;1.38;;;24.30;99.90;;;;;;4232427;28;20237;-84
2022/08/03 07:32:58;;;;;;;2.83;1.20;;;24.30;99.90;;;;;;4232360;28;20218;-83
2022/08/03 07:35:01;;;;;;;2.58;1.30;;;24.30;99.90;;;;;;4232499;28;20209;-83
2022/08/03 07:37:03;;;;;;;2.42;1.27;;;24.30;99.90;;;;;;4232418;28;20662;-84
2022/08/03 07:39:06;;;;;;;3.60;1.73;;;24.30;99.90;;;;;;4232214;28;20273;-83
2022/08/03 07:41:09;;;;;;;2.53;1.17;;;24.30;99.90;;;;;;4232080;28;20211;-83
2022/08/03 07:43:11;;;;;;;3.47;1.35;;;24.30;99.90;;;;;;4231916;28;20282;-83
2022/08/03 07:45:13;;;;;;;1.52;1.20;;;24.30;99.90;;;;;;4232304;28;20611;-83
2022/08/03 07:47:18;;;;;;;2.65;1.60;;;24.30;99.90;;;;;;4231677;28;20616;-84
2022/08/03 07:49:22;;;;;;;3.78;1.50;;;24.30;99.90;;;;;;4232013;28;20217;-83
2022/08/03 07:51:24;;;;;;;3.75;1.17;;;24.30;99.90;;;;;;4232005;28;20243;-83
2022/08/03 07:53:27;;;;;;;2.55;1.20;;;24.40;99.90;;;;;;4231983;28;20726;-84
2022/08/03 07:55:30;;;;;;;2.30;1.13;;;24.30;99.90;;;;;;4232051;28;20214;-83
2022/08/03 07:57:32;;;;;;;4.50;1.52;;;24.40;99.90;;;;;;4232243;28;20210;-83
2022/08/03 07:59:37;;;;;;;2.17;1.50;;;24.40;99.90;;;;;;4231851;28;20239;-83
2022/08/03 08:01:39;;;;;;;4.50;1.45;;;24.40;99.90;;;;;;4231731;28;20218;-83
2022/08/03 08:03:41;;;;;;;2.28;1.40;;;24.30;99.90;;;;;;4232553;28;21035;-84
2022/08/03 08:05:45;;;;;;;3.13;1.17;;;24.30;99.90;;;;;;4232069;28;20210;-83
2022/08/03 08:07:47;;;;;;;3.10;1.60;;;24.40;99.90;;;;;;4231855;28;20602;-83
2022/08/03 08:09:49;;;;;;;2.42;1.00;;;24.40;99.90;;;;;;4231526;28;20278;-83
2022/08/03 08:11:51;;;;;;;2.55;1.20;;;24.40;99.90;;;;;;4231865;28;20289;-83
2022/08/03 08:13:54;;;;;;;3.63;1.25;;;24.40;99.90;;;;;;4231889;28;20610;-83
2022/08/03 08:15:56;;;;;;;2.30;1.25;;;24.40;99.90;;;;;;4231617;28;21014;-83
2022/08/03 08:18:01;;;;;;;1.85;1.20;;;24.40;99.90;;;;;;4231422;28;20723;-83
2022/08/03 08:20:05;;;;;;;2.83;1.10;;;24.40;99.90;;;;;;4231428;28;20206;-83
2022/08/03 08:22:11;;;;;;;2.67;1.20;;;24.40;99.90;;;;;;4231289;28;20214;-83
2022/08/03 08:24:13;;;;;;;3.30;1.35;;;24.40;99.90;;;;;;4231322;28;20209;-84
2022/08/03 08:26:16;;;;;;;1.85;1.27;;;24.40;99.90;;;;;;4231477;28;20217;-83
2022/08/03 08:28:19;;;;;;;2.70;1.25;;;24.40;99.90;;;;;;4231222;28;20239;-83
2022/08/03 08:30:23;;;;;;;3.05;1.25;;;24.40;99.90;;;;;;4230683;28;20282;-83
2022/08/03 08:32:25;;;;;;;3.60;1.55;;;24.40;99.90;;;;;;4229910;28;20271;-83
2022/08/03 08:34:27;;;;;;;3.70;1.35;;;24.40;99.90;;;;;;4230049;28;20214;-83
2022/08/03 08:36:30;;;;;;;3.15;1.35;;;24.40;99.90;;;;;;4229969;28;20242;-83
2022/08/03 08:38:34;;;;;;;3.40;1.33;;;24.40;99.90;;;;;;4229863;28;20627;-83
2022/08/03 08:40:37;;;;;;;2.50;1.23;;;24.40;99.90;;;;;;4231042;28;20251;-83
2022/08/03 08:42:40;;;;;;;2.80;1.35;;;24.40;99.90;;;;;;4231567;28;20214;-83
2022/08/03 08:44:42;;;;;;;1.67;1.23;;;24.40;99.90;;;;;;4231006;28;20290;-83
2022/08/03 08:46:45;;;;;;;3.90;1.30;;;24.50;99.90;;;;;;4231440;28;20217;-83
2022/08/03 08:48:48;;;;;;;3.13;1.33;;;24.40;99.90;;;;;;4231552;28;20267;-83
2022/08/03 08:50:53;;;;;;;2.70;1.60;;;24.40;99.90;;;;;;4231096;28;20233;-83
2022/08/03 08:52:58;;;;;;;2.70;1.35;;;24.50;99.90;;;;;;4229842;28;20617;-83
2022/08/03 08:55:05;;;;;;;4.50;1.50;;;24.50;99.90;;;;;;4229523;28;20217;-83
2022/08/03 08:57:09;;;;;;;1.88;1.23;;;24.50;99.90;;;;;;4229889;28;20618;-83
2022/08/03 08:59:12;;;;;;;3.47;1.52;;;24.50;99.90;;;;;;4229618;28;20247;-83
2022/08/03 09:01:14;;;;;;;3.55;1.40;;;24.50;99.90;;;;;;4229776;28;20206;-83
2022/08/03 09:03:17;;;;;;;2.17;1.30;;;24.50;99.90;;;;;;4229719;28;20263;-83
2022/08/03 09:05:20;;;;;;;2.92;1.40;;;24.50;99.90;;;;;;4229328;28;20213;-83
2022/08/03 09:07:22;;;;;;;4.40;1.45;;;24.50;99.90;;;;;;4229808;28;20291;-83
2022/08/03 09:09:25;;;;;;;2.47;1.40;;;24.50;99.90;;;;;;4229844;28;20205;-84
2022/08/03 09:11:28;;;;;;;2.53;1.35;;;24.50;99.90;;;;;;4229204;28;20237;-83
2022/08/03 09:13:32;;;;;;;3.10;1.40;;;24.50;99.90;;;;;;4229713;28;20618;-83
2022/08/03 09:15:36;;;;;;;2.47;1.30;;;24.50;99.90;;;;;;4229601;28;20259;-83
2022/08/03 09:17:40;;;;;;;2.95;1.10;;;24.50;99.90;;;;;;4229484;28;20669;-83
2022/08/03 09:19:42;;;;;;;3.63;1.65;;;24.50;99.90;;;;;;4229460;28;20221;-83
2022/08/03 09:21:45;;;;;;;3.15;1.40;;;24.50;99.90;;;;;;4229777;28;20267;-83
2022/08/03 09:23:49;;;;;;;2.42;1.27;;;24.50;99.90;;;;;;4229757;28;20221;-83
2022/08/03 09:25:58;;;;;;;2.05;1.10;;;24.50;99.90;;;;;;4230157;28;20218;-83
2022/08/03 09:28:09;;;;;;;3.22;1.20;;;24.50;99.90;;;;;;4229890;28;20209;-84
2022/08/03 09:30:16;;;;;;;5.15;1.50;;;24.50;99.90;;;;;;4229534;28;20255;-83
2022/08/03 09:32:21;;;;;;;2.50;1.30;;;24.50;99.90;;;;;;4229374;28;20209;-84
2022/08/03 09:34:27;;;;;;;2.88;1.30;;;24.60;99.90;;;;;;4229712;28;20217;-83
2022/08/03 09:36:40;;;;;;;3.28;1.40;;;24.60;99.90;;;;;;4229567;28;20217;-83
2022/08/03 09:39:00;;;;;;;1.63;1.20;;;24.50;99.90;;;;;;4229498;28;20222;-83
2022/08/03 09:41:03;;;;;;;2.20;1.20;;;24.60;99.90;;;;;;4229192;28;20218;-83
2022/08/03 09:43:06;;;;;;;2.70;1.50;;;24.60;99.90;;;;;;4229217;28;20697;-83
2022/08/03 09:45:26;;;;;;;3.33;1.55;;;24.60;99.90;;;;;;4229329;28;20214;-83
2022/08/03 09:47:30;;;;;;;4.07;1.45;;;24.60;99.90;;;;;;4229540;28;20707;-83
2022/08/03 09:49:33;;;;;;;2.58;1.52;;;24.60;99.90;;;;;;4229323;28;20270;-83
2022/08/03 09:51:35;;;;;;;3.70;1.38;;;24.60;99.90;;;;;;4229152;28;20234;-83
2022/08/03 09:53:43;;;;;;;3.58;1.40;;;24.60;99.90;;;;;;4229289;28;20267;-83
2022/08/03 09:55:55;;;;;;;2.55;1.48;;;24.60;99.90;;;;;;4229195;28;20267;-83
2022/08/03 09:58:05;;;;;;;2.40;1.30;;;24.70;99.90;;;;;;4229216;28;20214;-80
2022/08/03 10:00:12;;;;;;;4.28;1.60;;;24.60;99.90;;;;;;4229033;28;20673;-80
2022/08/03 10:02:22;;;;;;;2.95;1.50;;;24.70;99.90;;;;;;4228940;28;20205;-80
2022/08/03 10:04:25;;;;;;;2.95;1.27;;;24.60;99.90;;;;;;4230931;28;20263;-80
2022/08/03 10:06:27;;;;;;;2.28;1.17;;;24.60;99.90;;;;;;4232068;28;20214;-80
2022/08/03 10:08:31;;;;;;;2.05;1.30;;;24.70;99.90;;;;;;4231974;28;20255;-80
2022/08/03 10:10:42;;;;;;;2.90;1.30;;;24.70;99.90;;;;;;4232023;28;20274;-80
2022/08/03 10:12:47;;;;;;;2.67;1.30;;;24.60;99.90;;;;;;4232012;28;20255;-80
2022/08/03 10:14:51;;;;;;;3.28;1.35;;;24.70;99.90;;;;;;4232330;28;20258;-80
2022/08/03 10:16:54;;;;;;;3.25;1.30;;;24.70;99.90;;;;;;4232024;28;20266;-80
2022/08/03 10:18:57;;;;;;;1.33;1.08;;;24.70;99.90;;;;;;4231946;28;20317;-81
2022/08/03 10:21:03;;;;;;;3.17;1.40;;;24.70;99.90;;;;;;4232090;28;20218;-80
2022/08/03 10:23:07;;;;;;;4.30;1.40;;;24.70;99.90;;;;;;4231933;28;20225;-80
2022/08/03 10:25:12;;;;;;;2.20;1.23;;;24.70;99.90;;;;;;4232172;28;20243;-80
2022/08/03 10:27:15;;;;;;;2.65;1.58;;;24.70;99.90;;;;;;4231776;28;20213;-80
2022/08/03 10:29:21;;;;;;;3.38;1.65;;;24.70;99.90;;;;;;4232378;28;20277;-80
2022/08/03 10:31:24;;;;;;;3.22;1.25;;;24.70;99.90;;;;;;4231650;28;20727;-80
2022/08/03 10:33:31;;;;;;;4.35;1.50;;;24.70;99.90;;;;;;4232141;28;20213;-80
2022/08/03 10:35:37;;;;;;;3.28;1.30;;;24.70;99.90;;;;;;4231677;28;20221;-80
2022/08/03 10:37:43;;;;;;;2.60;1.40;;;24.70;99.90;;;;;;4231944;28;20266;-80
2022/08/03 10:39:53;;;;;;;2.90;1.40;;;24.70;99.90;;;;;;4232051;28;20214;-80
2022/08/03 10:41:57;;;;;;;2.58;1.63;;;24.70;99.90;;;;;;4231363;28;20726;-80
2022/08/03 10:44:04;;;;;;;2.40;1.33;;;24.80;99.90;;;;;;4231412;28;20241;-81
2022/08/03 10:46:08;;;;;;;2.67;1.00;;;24.70;99.90;;;;;;4232220;28;20263;-80
2022/08/03 10:48:11;;;;;;;3.40;1.02;;;24.80;99.90;;;;;;4231995;28;20266;-80
2022/08/03 10:50:15;;;;;;;2.78;1.33;;;24.80;99.90;;;;;;4231931;28;20213;-80
2022/08/03 10:52:17;;;;;;;2.72;1.60;;;24.80;99.90;;;;;;4231615;28;20278;-80
2022/08/03 10:59:58;;;;;;;2.58;1.20;;;24.80;99.90;;;;;;4231821;28;20178;-80